Historyczne dane pomiarowe

Dodano dane terminowe – wersja testowa.

Dane z okresu 1951-2019

Wersja bazy: 1.34 [2019-03-16, lista zmian], aktualizacja planowana na 2019-04-15

Dane meteo z obszaru Polski uzyskane na podstawie danych udostępnionych przez Instytut Meteorologii i Gospodarki Wodnej – Państwowy Instytut Badawczy.

 

Wybierz Datę:    

       

TemperaturaWilgotnośćWiatrCiśnienieOpadyŚniegCzas trwania zjawisk
 Stacja t tx tn tng RH VA  wxwx mslp ppp RRR   cm mm wxwxwxwxwxwxwx
1956-11-09 -0.2 2.6 -1.7- 77.3- 5.7 4.0---- 0.0------------
1956-11-08 0.7 5.5 -3.3- 75.8- 4.0 1.0---- 0.0------------
1956-11-07 3.4 4.8 2.9- 65.5- 5.0 4.3---- 0.0------------
1956-11-06 4.2 6.6 3.4- 60.3- 4.3 9.7---- 0.4------------
1956-11-05 6.7 8.5 3.5- 69.0- 5.0 10.7---- 1.9------------
1956-11-04 3.3 5.3 0.6- 81.0- 7.7 4.3---- 0.5------------
1956-11-03 3.1 5.0 1.1- 71.0- 6.3 4.0---- 0.0------------
1956-11-02 4.9 7.0 3.6- 69.3- 5.7 3.7---- 0.0------------
1956-11-01 5.6 7.8 0.6- 92.3- 7.7 8.0---- 4.2------------
1956-10-31 -1.1 2.3 -6.6- 79.8- 5.3 2.7---- 0.0------------
1956-10-30 -0.2 2.8 -1.0- 86.5- 5.3 4.0---- 0.0------------
1956-10-29 2.5 6.7 1.1- 85.0- 8.0 6.0---- 0.4------------
1956-10-28 7.2 8.8 6.3- 91.5- 8.0 5.7---- 0.0------------
1956-10-27 8.2 10.2 2.1- 86.3- 7.3 6.3---- 8.7------------
1956-10-26 6.3 10.3 5.0- 87.8- 4.7 3.0---- 0.0------------
1956-10-25 9.5 14.0 7.2- 86.3- 5.0 5.3---- 0.0------------
1956-10-24 12.1 13.1 10.6- 93.5- 8.0 3.3---- 1.4------------
1956-10-23 11.0 12.0 10.2- 83.8- 8.0 6.0---- 0.1------------
1956-10-22 12.2 13.1 11.5- 78.5- 7.7 7.3---- 0.0------------
1956-10-21 12.6 13.4 10.2- 89.0- 7.3 5.3---- 0.0------------
1956-10-20 10.1 12.2 7.1- 92.0- 7.7 3.3---- 0.0------------
1956-10-19 11.1 12.2 9.7- 86.8- 6.7 7.3---- 0.0------------
1956-10-18 11.4 12.6 9.7- 97.3- 8.0 2.3---- 10.1------------
1956-10-17 10.2 16.4 3.7- 67.5- 2.3 4.3---- 0.7------------
1956-10-16 6.1 11.8 1.3- 90.8- 1.3 1.0---- 0.0------------
1956-10-15 6.7 11.8 3.5- 89.3- 0.3 2.7---- 0.0------------
1956-10-14 10.0 12.4 9.1- 71.3- 2.0 8.7---- 0.0------------
1956-10-13 10.8 12.3 10.2- 85.8- 7.7 16.0---- 3.7------------
1956-10-12 11.5 12.4 10.5- 88.0- 7.3 10.7---- 0.0------------
1956-10-11 11.5 12.4 10.2- 85.5- 7.3 9.0---- 0.0------------
1956-10-10 8.0 10.5 1.3- 72.0- 6.7 5.0---- 0.0------------
1956-10-09 9.6 12.5 5.5- 76.3- 5.3 5.0---- 0.0------------
1956-10-08 6.1 9.4 4.9- 83.5- 7.0 3.3---- 3.8------------
1956-10-07 8.5 9.6 3.2- 77.3- 6.0 7.7---- 2.0------------
1956-10-06 8.1 10.3 4.0- 83.3- 6.3 3.7---- 0.5------------
1956-10-05 7.5 11.9 5.4- 93.5- 4.7 3.7---- 2.7------------
1956-10-04 10.2 14.8 7.3- 90.8- 7.0 3.7---- 1.9------------
1956-10-03 12.2 14.0 10.9- 91.0- 5.7 5.3---- 3.0------------
1956-10-02 13.7 18.3 10.1- 94.5- 8.0 3.3---- 12.0------------
1956-10-01 12.5 15.8 8.8- 91.3- 6.0 4.3---- 9.5------------
1956-09-30 11.9 16.3 10.5- 93.5- 1.3 5.3---- 0.5------------
1956-09-29 14.5 16.9 13.4- 82.0- 2.7 7.7---- 0.0------------
1956-09-28 15.5 18.6 13.6- 85.8- 6.0 7.0---- 5.3------------
1956-09-27 14.8 19.3 11.8- 91.8- 5.3 4.0---- 2.4------------
1956-09-26 15.0 22.2 9.9- 74.5- 0.0 3.0---- 0.0------------
1956-09-25 12.7 19.8 4.0- 70.8- 0.0 3.3---- 0.0------------
1956-09-24 9.7 16.8 5.1- 69.3- 0.0 3.0---- 0.0------------
1956-09-23 11.6 18.0 8.0- 78.3- 4.0 4.0---- 0.0------------
1956-09-22 12.3 19.2 7.1- 85.0- 0.0 3.3---- 0.0------------
1956-09-21 10.1 17.1 3.2- 91.8- 1.3 1.3---- 0.0------------
1956-09-20 9.7 15.4 6.5- 88.3- 4.7 1.3---- 0.0------------
1956-09-19 9.3 16.2 3.5- 87.5- 4.7 2.0---- 0.0------------
1956-09-18 10.1 14.4 7.7- 89.0- 3.3 4.0---- 0.0------------
1956-09-17 12.2 13.9 10.5- 67.0- 4.7 6.0---- 1.4------------
1956-09-16 12.4 13.4 10.6- 71.3- 5.7 10.3---- 1.7------------
1956-09-15 13.4 14.6 10.4- 68.5- 4.3 8.0---- 0.0------------
1956-09-14 10.7 15.4 5.3- 87.8- 3.7 2.0---- 0.0------------
1956-09-13 11.0 13.6 9.8- 82.3- 4.7 6.7---- 4.8------------
1956-09-12 13.4 15.0 12.0- 66.5- 4.0 9.3---- 3.0------------
1956-09-11 14.4 16.7 11.4- 95.0- 6.7 1.3---- 13.3------------
241.5 ms

 

Źródłem pochodzenia danych jest Instytut Meteorologii i Gospodarki Wodnej – Państwowy Instytut Badawczy. Dane Instytutu Meteorologii i Gospodarki Wodnej – Państwowego Instytutu Badawczego zostały przetworzone.

Dane źródłowe można odnaleźć na stronie https://dane.imgw.pl